createdAt,value
2017-07-19T00:02:19.311Z,98742.66
2017-07-19T00:04:46.826Z,98743.23
2017-07-19T00:07:14.383Z,98745.47
2017-07-19T00:09:41.972Z,98743.55
2017-07-19T00:12:09.493Z,98747.23
2017-07-19T00:14:37.092Z,98749.53
2017-07-19T00:17:04.600Z,98745.64
2017-07-19T00:19:32.211Z,98741.56
2017-07-19T00:21:59.720Z,98747.08
2017-07-19T00:24:27.267Z,98747.31
2017-07-19T00:26:54.788Z,98747.84
2017-07-19T00:29:22.338Z,98741.06
2017-07-19T00:31:49.845Z,98738.09
2017-07-19T00:34:17.385Z,98742.19
2017-07-19T00:36:44.903Z,98740.79
2017-07-19T00:39:12.494Z,98738.42
2017-07-19T00:41:40.090Z,98740.55
2017-07-19T00:44:07.655Z,98744.48
2017-07-19T00:46:35.210Z,98733.44
2017-07-19T00:49:02.757Z,98732.64
2017-07-19T00:51:30.272Z,98745.22
2017-07-19T00:53:57.818Z,98750.45
2017-07-19T00:56:25.341Z,98756.46
2017-07-19T00:58:52.878Z,98759.42
2017-07-19T01:01:20.442Z,98757.03
2017-07-19T01:03:47.952Z,98761.84
2017-07-19T01:06:15.522Z,98755.20
2017-07-19T01:08:43.036Z,98759.27
2017-07-19T01:11:10.577Z,98763.45
2017-07-19T01:13:38.106Z,98765.59
2017-07-19T01:16:05.725Z,98768.23
2017-07-19T01:18:33.242Z,98763.20
2017-07-19T01:21:00.843Z,98771.55
2017-07-19T01:23:28.364Z,98768.84
2017-07-19T01:25:55.916Z,98764.69
2017-07-19T01:28:23.432Z,98761.19
2017-07-19T01:30:51.082Z,98756.81
2017-07-19T01:33:18.652Z,98751.28
2017-07-19T01:35:46.215Z,98752.36
2017-07-19T01:38:13.730Z,98756.11
2017-07-19T01:40:41.424Z,98750.70
2017-07-19T01:43:08.932Z,98756.86
2017-07-19T01:45:36.474Z,98754.48
2017-07-19T01:48:03.993Z,98754.25
2017-07-19T01:50:31.506Z,98754.98
2017-07-19T01:52:59.123Z,98751.13
2017-07-19T01:55:26.640Z,98751.69
2017-07-19T01:57:54.194Z,98748.16
2017-07-19T02:00:21.710Z,98747.91
2017-07-19T02:02:49.258Z,98747.36
2017-07-19T02:05:16.774Z,98746.07
2017-07-19T02:07:44.324Z,98749.59
2017-07-19T02:10:11.843Z,98750.95
2017-07-19T02:12:39.385Z,98755.84
2017-07-19T02:15:06.896Z,98757.81
2017-07-19T02:17:34.442Z,98758.85
2017-07-19T02:20:01.951Z,98757.72
2017-07-19T02:22:29.493Z,98758.27
2017-07-19T02:24:57.086Z,98754.64
2017-07-19T02:27:24.635Z,98751.13
2017-07-19T02:29:54.212Z,98754.47
2017-07-19T02:32:21.838Z,98757.81
2017-07-19T02:34:49.366Z,98757.73
2017-07-19T02:37:16.944Z,98756.38
2017-07-19T02:39:44.466Z,98752.88
2017-07-19T02:42:11.985Z,98751.13
2017-07-19T02:44:39.535Z,98752.26
2017-07-19T02:47:07.070Z,98754.42
2017-07-19T02:49:34.630Z,98751.23
2017-07-19T02:52:02.178Z,98752.59
2017-07-19T02:54:29.733Z,98754.90
2017-07-19T02:56:57.363Z,98748.98
2017-07-19T02:59:24.910Z,98744.77
2017-07-19T03:01:52.415Z,98744.59
2017-07-19T03:04:19.956Z,98749.95
2017-07-19T03:06:47.481Z,98747.73
2017-07-19T03:09:15.029Z,98744.69
2017-07-19T03:11:42.538Z,98750.23
2017-07-19T03:14:10.127Z,98751.63
2017-07-19T03:16:37.647Z,98756.77
2017-07-19T03:19:05.247Z,98754.12
2017-07-19T03:21:32.807Z,98753.02
2017-07-19T03:24:00.351Z,98757.34
2017-07-19T03:26:27.861Z,98752.54
2017-07-19T03:28:55.491Z,98748.80
2017-07-19T03:31:23.035Z,98749.20
2017-07-19T03:33:50.560Z,98749.20
2017-07-19T03:36:18.116Z,98756.44
2017-07-19T03:38:45.631Z,98760.66
2017-07-19T03:41:13.185Z,98758.67
2017-07-19T03:43:40.704Z,98755.86
2017-07-19T03:46:08.255Z,98765.28
2017-07-19T03:48:35.769Z,98769.98
2017-07-19T03:51:03.332Z,98770.16
2017-07-19T03:53:31.641Z,98767.59
2017-07-19T03:55:59.189Z,98763.05
2017-07-19T03:58:26.705Z,98769.98
2017-07-19T04:00:54.254Z,98763.20
2017-07-19T04:03:21.764Z,98762.57
2017-07-19T04:05:49.327Z,98763.67
2017-07-19T04:08:16.922Z,98762.34
2017-07-19T04:10:44.471Z,98765.14
2017-07-19T04:13:11.976Z,98766.02
2017-07-19T04:15:39.530Z,98767.41
2017-07-19T04:18:07.044Z,98773.46
2017-07-19T04:20:34.559Z,98765.49
2017-07-19T04:23:02.126Z,98769.31
2017-07-19T04:25:29.661Z,98771.55
2017-07-19T04:27:57.240Z,98769.39
2017-07-19T04:30:24.753Z,98766.13
2017-07-19T04:32:52.291Z,98767.16
2017-07-19T04:35:19.797Z,98769.28
2017-07-19T04:37:47.381Z,98764.98
2017-07-19T04:40:14.950Z,98772.03
2017-07-19T04:42:42.493Z,98777.28
2017-07-19T04:45:10.057Z,98777.76
2017-07-19T04:47:37.605Z,98776.18
2017-07-19T04:50:05.112Z,98775.16
2017-07-19T04:52:32.657Z,98775.25
2017-07-19T04:55:00.184Z,98777.87
2017-07-19T04:57:27.752Z,98776.91
2017-07-19T04:59:55.261Z,98769.81
2017-07-19T05:02:22.874Z,98769.97
2017-07-19T05:04:50.386Z,98768.78
2017-07-19T05:07:17.899Z,98770.69
2017-07-19T05:09:45.441Z,98772.85
2017-07-19T05:12:12.959Z,98781.01
2017-07-19T05:14:40.511Z,98782.37
2017-07-19T05:17:08.031Z,98774.77
2017-07-19T05:19:35.576Z,98775.17
2017-07-19T05:22:03.092Z,98780.05
2017-07-19T05:24:30.648Z,98781.01
2017-07-19T05:26:58.249Z,98782.47
2017-07-19T05:29:25.787Z,98794.70
2017-07-19T05:31:53.299Z,98793.56
2017-07-19T05:34:20.846Z,98786.22
2017-07-19T05:36:48.357Z,98789.73
2017-07-19T05:39:15.897Z,98796.38
2017-07-19T05:41:43.525Z,98796.75
2017-07-19T05:44:11.068Z,98794.84
2017-07-19T05:46:38.575Z,98797.56
2017-07-19T05:49:06.117Z,98799.17
2017-07-19T05:51:33.625Z,98796.86
2017-07-19T05:54:01.185Z,98796.86
2017-07-19T05:56:28.703Z,98797.66
2017-07-19T05:58:56.213Z,98799.83
2017-07-19T06:01:23.799Z,98799.58
2017-07-19T06:03:51.359Z,98802.14
2017-07-19T06:06:18.908Z,98797.48
2017-07-19T06:08:46.433Z,98791.89
2017-07-19T06:11:13.986Z,98789.58
2017-07-19T06:13:41.495Z,98786.94
2017-07-19T06:16:09.049Z,98786.38
2017-07-19T06:18:36.568Z,98789.91
2017-07-19T06:21:04.109Z,98792.32
2017-07-19T06:23:31.647Z,98795.41
2017-07-19T06:25:59.194Z,98787.51
2017-07-19T06:28:26.697Z,98787.11
2017-07-19T06:30:54.244Z,98790.63
2017-07-19T06:33:21.820Z,98780.41
2017-07-19T06:35:49.365Z,98785.05
2017-07-19T06:38:16.882Z,98780.97
2017-07-19T06:40:44.424Z,98784.86
2017-07-19T06:43:11.944Z,98785.11
2017-07-19T06:45:39.452Z,98777.92
2017-07-19T06:48:07.001Z,98772.88
2017-07-19T06:50:34.515Z,98772.88
2017-07-19T06:53:02.058Z,98781.84
2017-07-19T06:55:29.652Z,98781.84
2017-07-19T06:57:57.217Z,98790.41
2017-07-19T07:00:24.738Z,98785.77
2017-07-19T07:02:52.281Z,98786.55
2017-07-19T07:05:19.786Z,98780.73
2017-07-19T07:07:47.336Z,98783.83
2017-07-19T07:10:14.844Z,98793.34
2017-07-19T07:12:42.388Z,98788.16
2017-07-19T07:15:09.900Z,98793.19
2017-07-19T07:17:37.445Z,98787.20
2017-07-19T07:20:04.957Z,98786.64
2017-07-19T07:22:32.487Z,98782.97
2017-07-19T07:24:59.999Z,98784.73
2017-07-19T07:27:27.539Z,98783.38
2017-07-19T07:29:55.053Z,98775.22
2017-07-19T07:32:22.601Z,98780.47
2017-07-19T07:34:50.114Z,98772.72
2017-07-19T07:37:17.632Z,98767.69
2017-07-19T07:39:45.218Z,98772.72
2017-07-19T07:42:12.728Z,98766.73
2017-07-19T07:44:40.268Z,98774.73
2017-07-19T07:47:07.782Z,98770.10
2017-07-19T07:49:35.331Z,98765.06
2017-07-19T07:52:02.855Z,98774.80
2017-07-19T07:54:30.402Z,98769.77
2017-07-19T07:56:57.908Z,98771.78
2017-07-19T07:59:25.451Z,98779.76
2017-07-19T08:01:52.973Z,98775.68
2017-07-19T08:04:20.512Z,98773.77
2017-07-19T08:06:48.068Z,98775.93
2017-07-19T08:09:15.605Z,98778.65
2017-07-19T08:11:43.113Z,98776.19
2017-07-19T08:14:10.657Z,98770.34
2017-07-19T08:16:38.178Z,98758.33
2017-07-19T08:19:05.729Z,98757.15
2017-07-19T08:21:33.232Z,98756.81
2017-07-19T08:24:00.773Z,98756.81
2017-07-19T08:26:28.284Z,98763.47
2017-07-19T08:28:55.793Z,98759.78
2017-07-19T08:31:23.337Z,98751.84
2017-07-19T08:33:50.844Z,98748.98
2017-07-19T08:36:18.390Z,98751.14
2017-07-19T08:38:45.899Z,98751.95
2017-07-19T08:41:13.441Z,98750.03
2017-07-19T08:43:40.954Z,98739.93
2017-07-19T08:46:08.504Z,98747.38
2017-07-19T08:48:36.022Z,98737.47
2017-07-19T08:51:03.575Z,98739.48
2017-07-19T08:53:31.822Z,98738.34
2017-07-19T08:55:59.355Z,98738.59
2017-07-19T08:58:26.870Z,98729.63
2017-07-19T09:00:54.416Z,98724.44
2017-07-19T09:03:21.927Z,98730.90
2017-07-19T09:05:49.466Z,98729.79
2017-07-19T09:08:16.977Z,98732.91
2017-07-19T09:10:44.518Z,98713.87
2017-07-19T09:13:12.024Z,98709.64
2017-07-19T09:15:39.589Z,98710.41
2017-07-19T09:18:07.943Z,98712.42
2017-07-19T09:20:35.455Z,98706.03
2017-07-19T09:23:03.102Z,98708.75
2017-07-19T09:25:30.609Z,98708.59
2017-07-19T09:27:58.123Z,98712.09
2017-07-19T09:30:25.680Z,98713.30
2017-07-19T09:32:53.195Z,98707.86
2017-07-19T09:35:20.716Z,98707.31
2017-07-19T09:37:48.275Z,98698.19
2017-07-19T09:40:15.788Z,98697.23
2017-07-19T09:42:43.300Z,98692.59
2017-07-19T09:45:10.864Z,98687.53
2017-07-19T09:47:38.369Z,98684.10
2017-07-19T09:50:05.879Z,98679.22
2017-07-19T09:52:33.446Z,98680.02
2017-07-19T09:55:00.969Z,98679.72
2017-07-19T09:57:28.483Z,98673.88
2017-07-19T09:59:56.048Z,98673.47
2017-07-19T10:02:23.559Z,98672.36
2017-07-19T10:04:51.063Z,98670.84
2017-07-19T10:07:18.625Z,98670.84
2017-07-19T10:09:46.129Z,98670.69
2017-07-19T10:12:13.640Z,98666.05
2017-07-19T10:14:41.198Z,98666.46
2017-07-19T10:17:08.711Z,98651.87
2017-07-19T10:19:36.212Z,98648.59
2017-07-19T10:22:03.780Z,98647.48
2017-07-19T10:24:31.287Z,98655.09
2017-07-19T10:26:58.796Z,98648.69
2017-07-19T10:29:26.365Z,98651.22
2017-07-19T10:31:53.877Z,98646.19
2017-07-19T10:34:21.414Z,98644.27
2017-07-19T10:36:48.976Z,98644.27
2017-07-19T10:39:16.533Z,98639.23
2017-07-19T10:41:44.050Z,98634.81
2017-07-19T10:44:11.652Z,98625.30
2017-07-19T10:46:39.173Z,98615.62
2017-07-19T10:49:06.724Z,98618.34
2017-07-19T10:51:34.239Z,98622.82
2017-07-19T10:54:01.792Z,98621.16
2017-07-19T10:56:29.336Z,98621.52
2017-07-19T10:58:56.836Z,98623.28
2017-07-19T11:01:24.381Z,98621.37
2017-07-19T11:03:51.899Z,98617.69
2017-07-19T11:06:19.404Z,98621.21
2017-07-19T11:08:46.949Z,98616.42
2017-07-19T11:11:14.455Z,98613.92
2017-07-19T11:13:42.005Z,98603.04
2017-07-19T11:16:09.526Z,98599.36
2017-07-19T11:18:37.046Z,98592.41
2017-07-19T11:21:04.642Z,98591.84
2017-07-19T11:23:32.184Z,98587.18
2017-07-19T11:25:59.736Z,98582.94
2017-07-19T11:28:27.246Z,98583.19
2017-07-19T11:30:54.780Z,98573.66
2017-07-19T11:33:22.319Z,98572.52
2017-07-19T11:35:49.838Z,98575.64
2017-07-19T11:38:17.386Z,98567.88
2017-07-19T11:40:44.900Z,98566.37
2017-07-19T11:43:12.408Z,98558.67
2017-07-19T11:45:39.956Z,98553.63
2017-07-19T11:48:07.466Z,98548.98
2017-07-19T11:50:35.053Z,98544.35
2017-07-19T11:53:02.559Z,98547.28
2017-07-19T11:55:30.077Z,98544.41
2017-07-19T11:57:57.626Z,98540.17
2017-07-19T12:00:25.139Z,98538.25
2017-07-19T12:02:52.685Z,98523.69
2017-07-19T12:05:20.206Z,98526.22
2017-07-19T12:07:47.732Z,98526.06
2017-07-19T12:10:15.276Z,98522.39
2017-07-19T12:12:42.785Z,98511.91
2017-07-19T12:15:10.352Z,98508.47
2017-07-19T12:17:37.857Z,98507.48
2017-07-19T12:20:05.372Z,98504.60
2017-07-19T12:22:32.923Z,98502.69
2017-07-19T12:25:00.437Z,98498.05
2017-07-19T12:27:27.993Z,98489.14
2017-07-19T12:29:55.505Z,98491.70
2017-07-19T12:32:23.058Z,98485.70
2017-07-19T12:34:50.612Z,98485.14
2017-07-19T12:37:18.120Z,98477.37
2017-07-19T12:39:45.680Z,98482.23
2017-07-19T12:42:13.184Z,98476.08
2017-07-19T12:44:40.692Z,98469.67
2017-07-19T12:47:08.233Z,98472.23
2017-07-19T12:49:35.747Z,98470.88
2017-07-19T12:52:03.295Z,98468.77
2017-07-19T12:54:30.809Z,98468.05
2017-07-19T12:56:58.317Z,98474.45
2017-07-19T12:59:25.856Z,98467.87
2017-07-19T13:01:53.469Z,98474.11
2017-07-19T13:04:21.043Z,98467.15
2017-07-19T13:06:48.552Z,98468.36
2017-07-19T13:09:16.057Z,98461.95
2017-07-19T13:11:43.599Z,98460.41
2017-07-19T13:14:11.110Z,98467.85
2017-07-19T13:16:38.652Z,98460.48
2017-07-19T13:19:06.158Z,98457.61
2017-07-19T13:21:33.673Z,98457.02
2017-07-19T13:24:01.219Z,98456.30
2017-07-19T13:26:28.729Z,98450.70
2017-07-19T13:28:56.291Z,98450.91
2017-07-19T13:31:23.818Z,98442.19
2017-07-19T13:33:51.331Z,98440.67
2017-07-19T13:36:18.868Z,98447.48
2017-07-19T13:38:46.386Z,98444.81
2017-07-19T13:41:13.948Z,98444.25
2017-07-19T13:43:41.460Z,98446.02
2017-07-19T13:46:08.971Z,98447.03
2017-07-19T13:48:36.509Z,98437.50
2017-07-19T13:51:04.056Z,98439.50
2017-07-19T13:53:31.611Z,98433.66
2017-07-19T13:55:59.126Z,98436.22
2017-07-19T13:58:26.639Z,98430.22
2017-07-19T14:00:54.196Z,98431.23
2017-07-19T14:03:21.702Z,98424.83
2017-07-19T14:05:49.264Z,98426.44
2017-07-19T14:08:16.772Z,98420.98
2017-07-19T14:10:44.277Z,98416.95
2017-07-19T14:13:11.826Z,98417.63
2017-07-19T14:15:39.342Z,98406.74
2017-07-19T14:18:06.903Z,98405.38
2017-07-19T14:20:34.406Z,98396.06
2017-07-19T14:23:01.919Z,98390.46
2017-07-19T14:25:29.488Z,98378.36
2017-07-19T14:27:56.998Z,98382.12
2017-07-19T14:30:24.501Z,98372.20
2017-07-19T14:32:52.052Z,98379.22
2017-07-19T14:35:19.566Z,98385.06
2017-07-19T14:37:47.069Z,98384.50
2017-07-19T14:40:14.625Z,98390.35
2017-07-19T14:42:42.142Z,98389.79
2017-07-19T14:45:09.650Z,98386.72
2017-07-19T14:47:37.216Z,98387.13
2017-07-19T14:50:04.729Z,98389.69
2017-07-19T14:52:32.237Z,98383.68
2017-07-19T14:54:59.829Z,98386.61
2017-07-19T14:57:27.337Z,98386.05
2017-07-19T14:59:54.950Z,98381.41
2017-07-19T15:02:22.500Z,98385.89
2017-07-19T15:04:50.018Z,98383.41
2017-07-19T15:07:17.537Z,98383.81
2017-07-19T15:09:45.073Z,98384.98
2017-07-19T15:12:12.578Z,98386.59
2017-07-19T15:14:40.086Z,98387.79
2017-07-19T15:17:07.633Z,98393.23
2017-07-19T15:19:35.141Z,98390.33
2017-07-19T15:22:02.661Z,98380.39
2017-07-19T15:24:30.232Z,98379.27
2017-07-19T15:26:57.736Z,98382.64
2017-07-19T15:29:25.243Z,98379.32
2017-07-19T15:31:52.805Z,98377.59
2017-07-19T15:34:20.322Z,98378.77
2017-07-19T15:36:47.836Z,98377.24
2017-07-19T15:39:15.396Z,98382.69
2017-07-19T15:41:42.905Z,98380.77
2017-07-19T15:44:10.420Z,98381.38
2017-07-19T15:46:37.958Z,98384.10
2017-07-19T15:49:05.465Z,98384.90
2017-07-19T15:51:33.093Z,98387.06
2017-07-19T15:54:00.609Z,98378.73
2017-07-19T15:56:28.152Z,98387.70
2017-07-19T15:58:55.661Z,98386.95
2017-07-19T16:01:23.170Z,98389.52
2017-07-19T16:03:50.710Z,98378.78
2017-07-19T16:06:18.248Z,98376.30
2017-07-19T16:08:45.783Z,98374.94
2017-07-19T16:11:13.292Z,98366.42
2017-07-19T16:13:40.858Z,98358.25
2017-07-19T16:16:08.376Z,98355.92
2017-07-19T16:18:35.917Z,98356.73
2017-07-19T16:21:03.437Z,98350.48
2017-07-19T16:23:31.386Z,98355.77
2017-07-19T16:25:58.896Z,98356.38
2017-07-19T16:28:26.446Z,98353.33
2017-07-19T16:30:53.959Z,98351.81
2017-07-19T16:33:21.530Z,98351.05
2017-07-19T16:35:49.045Z,98350.90
2017-07-19T16:38:16.588Z,98354.02
2017-07-19T16:40:44.188Z,98354.23
2017-07-19T16:43:11.736Z,98361.28
2017-07-19T16:45:39.248Z,98370.66
2017-07-19T16:48:06.760Z,98362.08
2017-07-19T16:50:34.326Z,98364.64
2017-07-19T16:53:01.829Z,98357.08
2017-07-19T16:55:29.368Z,98351.47
2017-07-19T16:57:56.878Z,98350.52
2017-07-19T17:00:24.430Z,98348.59
2017-07-19T17:02:51.940Z,98357.94
2017-07-19T17:05:19.583Z,98351.36
2017-07-19T17:07:47.106Z,98348.08
2017-07-19T17:10:14.640Z,98352.97
2017-07-19T17:12:42.145Z,98348.48
2017-07-19T17:15:09.691Z,98353.58
2017-07-19T17:17:37.199Z,98362.71
2017-07-19T17:20:04.769Z,98368.40
2017-07-19T17:22:32.287Z,98366.63
2017-07-19T17:24:59.824Z,98371.92
2017-07-19T17:27:27.344Z,98377.21
2017-07-19T17:29:54.889Z,98378.58
2017-07-19T17:32:22.402Z,98375.66
2017-07-19T17:34:49.916Z,98377.82
2017-07-19T17:37:17.456Z,98376.06
2017-07-19T17:39:44.959Z,98379.19
2017-07-19T17:42:12.501Z,98376.45
2017-07-19T17:44:40.025Z,98373.98
2017-07-19T17:47:07.581Z,98372.05
2017-07-19T17:49:35.092Z,98366.77
2017-07-19T17:52:02.630Z,98372.05
2017-07-19T17:54:30.140Z,98373.22
2017-07-19T17:56:57.677Z,98379.63
2017-07-19T17:59:25.189Z,98374.19
2017-07-19T18:01:52.733Z,98377.31
2017-07-19T18:04:20.240Z,98376.59
2017-07-19T18:06:47.794Z,98382.04
2017-07-19T18:09:15.299Z,98376.34
2017-07-19T18:11:42.849Z,98373.06
2017-07-19T18:14:10.364Z,98370.17
2017-07-19T18:16:37.868Z,98372.34
2017-07-19T18:19:05.413Z,98367.85
2017-07-19T18:21:32.923Z,98365.34
2017-07-19T18:24:00.474Z,98362.85
2017-07-19T18:26:28.038Z,98362.29
2017-07-19T18:28:55.583Z,98356.09
2017-07-19T18:31:23.097Z,98360.58
2017-07-19T18:33:50.637Z,98361.38
2017-07-19T18:36:18.147Z,98363.14
2017-07-19T18:38:45.691Z,98361.22
2017-07-19T18:41:13.205Z,98359.30
2017-07-19T18:43:40.749Z,98374.48
2017-07-19T18:46:08.310Z,98369.84
2017-07-19T18:48:35.857Z,98368.88
2017-07-19T18:51:03.366Z,98373.77
2017-07-19T18:53:30.933Z,98372.61
2017-07-19T18:55:58.445Z,98368.31
2017-07-19T18:58:25.990Z,98374.38
2017-07-19T19:00:53.563Z,98376.94
2017-07-19T19:03:21.080Z,98383.59
2017-07-19T19:05:48.616Z,98381.83
2017-07-19T19:08:16.127Z,98390.00
2017-07-19T19:10:43.679Z,98387.12
2017-07-19T19:13:11.189Z,98394.33
2017-07-19T19:15:38.730Z,98393.77
2017-07-19T19:18:06.241Z,98402.34
2017-07-19T19:20:33.787Z,98400.42
2017-07-19T19:23:01.296Z,98405.31
2017-07-19T19:25:28.851Z,98407.63
2017-07-19T19:27:56.362Z,98413.33
2017-07-19T19:30:23.920Z,98409.45
2017-07-19T19:32:51.431Z,98412.41
2017-07-19T19:35:18.975Z,98412.41
2017-07-19T19:37:46.489Z,98408.16
2017-07-19T19:40:14.033Z,98409.52
2017-07-19T19:42:41.539Z,98411.50
2017-07-19T19:45:09.094Z,98408.21
2017-07-19T19:47:36.611Z,98406.84
2017-07-19T19:50:04.115Z,98407.25
2017-07-19T19:52:31.671Z,98405.33
2017-07-19T19:54:59.193Z,98406.34
2017-07-19T19:57:26.748Z,98415.87
2017-07-19T19:59:54.255Z,98409.63
2017-07-19T20:02:21.808Z,98400.88
2017-07-19T20:04:49.325Z,98403.05
2017-07-19T20:07:16.876Z,98405.77
2017-07-19T20:09:44.392Z,98406.58
2017-07-19T20:12:11.934Z,98409.30
2017-07-19T20:14:39.447Z,98412.83
2017-07-19T20:17:06.992Z,98414.19
2017-07-19T20:19:34.509Z,98419.45
2017-07-19T20:22:02.064Z,98414.99
2017-07-19T20:24:29.682Z,98405.05
2017-07-19T20:26:57.231Z,98403.90
2017-07-19T20:29:24.749Z,98401.57
2017-07-19T20:31:52.297Z,98394.36
2017-07-19T20:34:19.887Z,98406.63
2017-07-19T20:36:47.412Z,98423.78
2017-07-19T20:39:14.963Z,98464.27
2017-07-19T20:41:42.481Z,98463.47
2017-07-19T20:44:10.025Z,98470.88
2017-07-19T20:46:37.541Z,98483.51
2017-07-19T20:49:05.088Z,98492.28
2017-07-19T20:51:32.659Z,98496.77
2017-07-19T20:54:00.209Z,98491.41
2017-07-19T20:56:27.735Z,98485.88
2017-07-19T20:58:55.325Z,98482.42
2017-07-19T21:01:22.844Z,98497.92
2017-07-19T21:03:50.392Z,98507.00
2017-07-19T21:06:17.901Z,98509.30
2017-07-19T21:08:45.921Z,98510.43
2017-07-19T21:11:13.479Z,98524.13
2017-07-19T21:13:41.066Z,98534.20
2017-07-19T21:16:08.623Z,98553.89
2017-07-19T21:18:36.623Z,98546.18
2017-07-19T21:21:04.188Z,98557.53
2017-07-19T21:23:32.425Z,98570.38
2017-07-19T21:25:59.974Z,98579.55
2017-07-19T21:28:27.527Z,98593.83
2017-07-19T21:30:55.115Z,98606.37
2017-07-19T21:33:22.671Z,98577.78
2017-07-19T21:35:50.266Z,98580.97
2017-07-19T21:38:17.821Z,98579.91
2017-07-19T21:40:45.407Z,98574.67
2017-07-19T21:43:13.096Z,98577.95
2017-07-19T21:45:40.689Z,98592.51
2017-07-19T21:48:08.247Z,98591.45
2017-07-19T21:50:35.851Z,98590.58
2017-07-19T21:53:03.401Z,98597.84
2017-07-19T21:55:31.030Z,98596.73
2017-07-19T21:57:58.586Z,98610.41
2017-07-19T22:00:26.179Z,98616.34
2017-07-19T22:02:53.736Z,98622.14
2017-07-19T22:05:21.316Z,98619.17
2017-07-19T22:07:48.871Z,98629.48
2017-07-19T22:10:16.450Z,98635.67
2017-07-19T22:12:43.999Z,98636.27
2017-07-19T22:15:11.605Z,98640.59
2017-07-19T22:17:39.159Z,98645.17
2017-07-19T22:20:06.718Z,98641.90
2017-07-19T22:22:34.310Z,98633.42
2017-07-19T22:25:01.877Z,98637.27
2017-07-19T22:27:29.455Z,98636.64
2017-07-19T22:29:57.011Z,98637.64
2017-07-19T22:32:24.590Z,98640.02
2017-07-19T22:34:52.147Z,98639.70
2017-07-19T22:37:19.731Z,98631.30
2017-07-19T22:39:47.298Z,98633.31
2017-07-19T22:42:14.877Z,98629.72
2017-07-19T22:44:42.431Z,98630.13
2017-07-19T22:47:10.013Z,98641.31
2017-07-19T22:49:37.569Z,98639.59
2017-07-19T22:52:05.176Z,98635.69
2017-07-19T22:54:32.735Z,98637.60
2017-07-19T22:57:00.413Z,98645.45
2017-07-19T22:59:27.979Z,98645.86
2017-07-19T23:01:55.590Z,98646.01
2017-07-19T23:04:23.218Z,98646.34
2017-07-19T23:06:50.780Z,98646.75
2017-07-19T23:09:18.371Z,98644.49
2017-07-19T23:11:45.922Z,98649.94
2017-07-19T23:14:13.508Z,98656.58
2017-07-19T23:16:41.077Z,98640.56
2017-07-19T23:19:08.665Z,98639.79
2017-07-19T23:21:36.319Z,98633.55
2017-07-19T23:24:03.919Z,98627.39
2017-07-19T23:26:31.475Z,98628.69
2017-07-19T23:28:59.072Z,98627.64
2017-07-19T23:31:26.686Z,98623.90
2017-07-19T23:33:54.327Z,98625.81
2017-07-19T23:36:21.887Z,98620.84
2017-07-19T23:38:49.490Z,98615.64
2017-07-19T23:41:17.603Z,98610.67
2017-07-19T23:43:45.186Z,98604.98
2017-07-19T23:46:12.739Z,98612.28
2017-07-19T23:48:40.329Z,98612.03
2017-07-19T23:51:07.881Z,98602.11
2017-07-19T23:53:35.465Z,98605.63
2017-07-19T23:56:03.019Z,98604.92
2017-07-19T23:58:30.581Z,98601.95
